Terminal Aerodrome Forecast
Issued by NWS Paducah, KY

Home | Current Version | Previous Version | Text Only | Print | Product List | Glossary On
Versions: 1 2 3 4 5 6 7 8 9 10 11 12 13 14 15 16 17
000
FTUS43 KPAH 211100
TAFPAH
TAF
KPAH 211120Z 2112/2212 08008KT P6SM BKN050
     FM211800 12008KT P6SM OVC040
     FM220000 12005KT P6SM VCSH OVC035
     FM220600 17007KT P6SM VCSH SCT025 OVC035=

USA.gov is the U.S. government's official web portal to all federal, state and local government web resources and services.